sensor_id;sensor_type;location;lat;lon;timestamp;temperature;humidity
19864;DHT22;10094;48.820;9.226;2023-05-01T00:03:58;10.30;99.90
19864;DHT22;10094;48.820;9.226;2023-05-01T00:10:41;10.30;99.90
19864;DHT22;10094;48.820;9.226;2023-05-01T00:17:24;10.40;99.90
19864;DHT22;10094;48.820;9.226;2023-05-01T00:24:06;10.30;99.90
19864;DHT22;10094;48.820;9.226;2023-05-01T00:30:48;10.30;99.90
19864;DHT22;10094;48.820;9.226;2023-05-01T00:37:31;10.20;99.90
19864;DHT22;10094;48.820;9.226;2023-05-01T00:44:13;10.00;99.90
19864;DHT22;10094;48.820;9.226;2023-05-01T00:50:57;10.00;99.90
19864;DHT22;10094;48.820;9.226;2023-05-01T00:57:39;10.10;99.90
19864;DHT22;10094;48.820;9.226;2023-05-01T01:04:22;10.10;99.90
19864;DHT22;10094;48.820;9.226;2023-05-01T01:18:34;10.00;99.90
19864;DHT22;10094;48.820;9.226;2023-05-01T01:25:32;10.10;99.90
19864;DHT22;10094;48.820;9.226;2023-05-01T01:40:06;10.20;99.90
19864;DHT22;10094;48.820;9.226;2023-05-01T01:46:53;10.30;99.90
19864;DHT22;10094;48.820;9.226;2023-05-01T01:53:36;10.20;99.90
19864;DHT22;10094;48.820;9.226;2023-05-01T02:00:20;10.20;99.90
19864;DHT22;10094;48.820;9.226;2023-05-01T02:07:05;10.20;99.90
19864;DHT22;10094;48.820;9.226;2023-05-01T02:13:49;10.00;99.90
19864;DHT22;10094;48.820;9.226;2023-05-01T02:20:33;9.90;99.90
19864;DHT22;10094;48.820;9.226;2023-05-01T02:28:01;9.90;99.90
19864;DHT22;10094;48.820;9.226;2023-05-01T02:34:23;10.10;99.90
19864;DHT22;10094;48.820;9.226;2023-05-01T02:41:07;9.90;99.90
19864;DHT22;10094;48.820;9.226;2023-05-01T02:47:53;9.90;99.90
19864;DHT22;10094;48.820;9.226;2023-05-01T02:54:37;10.00;99.90
19864;DHT22;10094;48.820;9.226;2023-05-01T03:01:20;10.10;99.90
19864;DHT22;10094;48.820;9.226;2023-05-01T03:08:02;10.20;99.90
19864;DHT22;10094;48.820;9.226;2023-05-01T03:14:45;10.30;99.90
19864;DHT22;10094;48.820;9.226;2023-05-01T03:21:27;10.20;99.90
19864;DHT22;10094;48.820;9.226;2023-05-01T03:28:10;10.10;99.90
19864;DHT22;10094;48.820;9.226;2023-05-01T03:34:53;10.20;99.90
19864;DHT22;10094;48.820;9.226;2023-05-01T03:41:36;10.30;99.90
19864;DHT22;10094;48.820;9.226;2023-05-01T03:48:23;10.20;99.90
19864;DHT22;10094;48.820;9.226;2023-05-01T03:55:06;10.20;99.90
19864;DHT22;10094;48.820;9.226;2023-05-01T04:01:55;10.30;99.90
19864;DHT22;10094;48.820;9.226;2023-05-01T04:08:39;10.20;99.90
19864;DHT22;10094;48.820;9.226;2023-05-01T04:15:22;10.10;99.90
19864;DHT22;10094;48.820;9.226;2023-05-01T04:22:04;10.20;99.90
19864;DHT22;10094;48.820;9.226;2023-05-01T04:28:48;10.30;99.90
19864;DHT22;10094;48.820;9.226;2023-05-01T04:35:39;10.20;99.90
19864;DHT22;10094;48.820;9.226;2023-05-01T04:42:22;10.30;99.90
19864;DHT22;10094;48.820;9.226;2023-05-01T04:49:11;10.20;99.90
19864;DHT22;10094;48.820;9.226;2023-05-01T04:55:53;10.40;99.90
19864;DHT22;10094;48.820;9.226;2023-05-01T05:02:35;10.40;99.90
19864;DHT22;10094;48.820;9.226;2023-05-01T05:09:18;10.50;99.90
19864;DHT22;10094;48.820;9.226;2023-05-01T05:16:01;10.60;99.90
19864;DHT22;10094;48.820;9.226;2023-05-01T05:22:44;10.70;99.90
19864;DHT22;10094;48.820;9.226;2023-05-01T05:29:35;10.80;99.90
19864;DHT22;10094;48.820;9.226;2023-05-01T05:36:18;11.10;99.90
19864;DHT22;10094;48.820;9.226;2023-05-01T05:43:00;11.20;99.90
19864;DHT22;10094;48.820;9.226;2023-05-01T05:49:44;11.20;99.90
19864;DHT22;10094;48.820;9.226;2023-05-01T05:56:26;11.30;99.90
19864;DHT22;10094;48.820;9.226;2023-05-01T06:03:09;11.40;99.90
19864;DHT22;10094;48.820;9.226;2023-05-01T06:09:52;11.40;99.90
19864;DHT22;10094;48.820;9.226;2023-05-01T06:16:35;11.30;99.90
19864;DHT22;10094;48.820;9.226;2023-05-01T06:23:17;11.10;99.90
19864;DHT22;10094;48.820;9.226;2023-05-01T06:30:09;11.10;99.90
19864;DHT22;10094;48.820;9.226;2023-05-01T06:36:55;11.50;99.90
19864;DHT22;10094;48.820;9.226;2023-05-01T06:43:38;11.90;99.90
19864;DHT22;10094;48.820;9.226;2023-05-01T06:50:20;12.20;99.90
19864;DHT22;10094;48.820;9.226;2023-05-01T06:57:03;12.40;99.90
19864;DHT22;10094;48.820;9.226;2023-05-01T07:03:46;12.50;99.90
19864;DHT22;10094;48.820;9.226;2023-05-01T07:10:28;12.40;99.90
19864;DHT22;10094;48.820;9.226;2023-05-01T07:17:11;12.60;99.90
19864;DHT22;10094;48.820;9.226;2023-05-01T07:23:54;13.00;99.90
19864;DHT22;10094;48.820;9.226;2023-05-01T07:30:36;13.30;99.90
19864;DHT22;10094;48.820;9.226;2023-05-01T07:37:19;13.50;99.90
19864;DHT22;10094;48.820;9.226;2023-05-01T07:44:01;13.60;99.90
19864;DHT22;10094;48.820;9.226;2023-05-01T07:50:43;13.50;99.90
19864;DHT22;10094;48.820;9.226;2023-05-01T07:57:26;13.70;99.90
19864;DHT22;10094;48.820;9.226;2023-05-01T08:04:08;14.00;99.90
19864;DHT22;10094;48.820;9.226;2023-05-01T08:10:51;14.80;99.90
19864;DHT22;10094;48.820;9.226;2023-05-01T08:17:36;14.40;99.90
19864;DHT22;10094;48.820;9.226;2023-05-01T08:24:19;14.40;99.90
19864;DHT22;10094;48.820;9.226;2023-05-01T08:31:01;14.70;99.90
19864;DHT22;10094;48.820;9.226;2023-05-01T08:37:44;14.50;99.90
19864;DHT22;10094;48.820;9.226;2023-05-01T08:44:27;15.10;99.90
19864;DHT22;10094;48.820;9.226;2023-05-01T08:51:13;14.90;99.90
19864;DHT22;10094;48.820;9.226;2023-05-01T08:57:57;15.70;99.90
19864;DHT22;10094;48.820;9.226;2023-05-01T09:04:40;17.10;99.90
19864;DHT22;10094;48.820;9.226;2023-05-01T09:11:24;18.30;99.90
19864;DHT22;10094;48.820;9.226;2023-05-01T09:18:07;19.20;98.80
19864;DHT22;10094;48.820;9.226;2023-05-01T09:24:50;20.30;98.50
19864;DHT22;10094;48.820;9.226;2023-05-01T09:31:32;21.30;94.20
19864;DHT22;10094;48.820;9.226;2023-05-01T09:38:17;21.50;93.90
19864;DHT22;10094;48.820;9.226;2023-05-01T09:45:00;21.30;93.40
19864;DHT22;10094;48.820;9.226;2023-05-01T09:51:43;20.60;94.90
19864;DHT22;10094;48.820;9.226;2023-05-01T09:58:26;21.20;93.50
19864;DHT22;10094;48.820;9.226;2023-05-01T10:05:10;21.10;94.10
19864;DHT22;10094;48.820;9.226;2023-05-01T10:11:54;22.00;93.00
19864;DHT22;10094;48.820;9.226;2023-05-01T10:18:38;21.30;93.60
19864;DHT22;10094;48.820;9.226;2023-05-01T10:25:20;20.70;94.00
19864;DHT22;10094;48.820;9.226;2023-05-01T10:32:04;20.50;94.20
19864;DHT22;10094;48.820;9.226;2023-05-01T10:38:51;20.00;95.50
19864;DHT22;10094;48.820;9.226;2023-05-01T10:45:33;19.70;95.00
19864;DHT22;10094;48.820;9.226;2023-05-01T10:52:17;19.90;95.10
19864;DHT22;10094;48.820;9.226;2023-05-01T10:59:01;19.80;96.40
19864;DHT22;10094;48.820;9.226;2023-05-01T11:26:10;20.30;94.20
19864;DHT22;10094;48.820;9.226;2023-05-01T11:32:53;19.40;97.50
19864;DHT22;10094;48.820;9.226;2023-05-01T11:39:36;19.60;97.40
19864;DHT22;10094;48.820;9.226;2023-05-01T11:46:31;19.30;98.90
19864;DHT22;10094;48.820;9.226;2023-05-01T11:53:14;19.70;96.50
19864;DHT22;10094;48.820;9.226;2023-05-01T11:59:57;19.80;97.30
19864;DHT22;10094;48.820;9.226;2023-05-01T12:06:42;19.90;95.40
19864;DHT22;10094;48.820;9.226;2023-05-01T12:13:26;19.80;96.10
19864;DHT22;10094;48.820;9.226;2023-05-01T12:20:09;19.70;94.60
19864;DHT22;10094;48.820;9.226;2023-05-01T12:26:59;19.50;96.30
19864;DHT22;10094;48.820;9.226;2023-05-01T12:33:52;20.10;94.70
19864;DHT22;10094;48.820;9.226;2023-05-01T12:40:34;20.60;93.80
19864;DHT22;10094;48.820;9.226;2023-05-01T12:47:17;20.40;94.40
19864;DHT22;10094;48.820;9.226;2023-05-01T12:53:59;20.10;94.80
19864;DHT22;10094;48.820;9.226;2023-05-01T13:00:47;20.60;94.50
19864;DHT22;10094;48.820;9.226;2023-05-01T13:07:29;20.50;94.90
19864;DHT22;10094;48.820;9.226;2023-05-01T13:14:14;20.50;95.00
19864;DHT22;10094;48.820;9.226;2023-05-01T13:21:08;20.60;94.50
19864;DHT22;10094;48.820;9.226;2023-05-01T13:27:51;21.10;94.70
19864;DHT22;10094;48.820;9.226;2023-05-01T13:34:34;20.10;96.00
19864;DHT22;10094;48.820;9.226;2023-05-01T13:41:20;19.50;98.50
19864;DHT22;10094;48.820;9.226;2023-05-01T13:48:11;19.30;97.60
19864;DHT22;10094;48.820;9.226;2023-05-01T13:54:55;19.10;98.70
19864;DHT22;10094;48.820;9.226;2023-05-01T14:01:41;18.80;99.90
19864;DHT22;10094;48.820;9.226;2023-05-01T14:08:30;18.60;99.90
19864;DHT22;10094;48.820;9.226;2023-05-01T14:15:12;18.50;99.90
19864;DHT22;10094;48.820;9.226;2023-05-01T14:21:55;18.50;99.90
19864;DHT22;10094;48.820;9.226;2023-05-01T14:28:41;18.30;99.90
19864;DHT22;10094;48.820;9.226;2023-05-01T14:35:24;18.20;99.90
19864;DHT22;10094;48.820;9.226;2023-05-01T14:42:07;18.70;99.90
19864;DHT22;10094;48.820;9.226;2023-05-01T14:48:49;19.10;99.90
19864;DHT22;10094;48.820;9.226;2023-05-01T14:55:35;19.80;99.90
19864;DHT22;10094;48.820;9.226;2023-05-01T15:02:17;19.90;98.10
19864;DHT22;10094;48.820;9.226;2023-05-01T15:09:00;19.10;99.50
19864;DHT22;10094;48.820;9.226;2023-05-01T15:15:45;18.50;99.90
19864;DHT22;10094;48.820;9.226;2023-05-01T15:22:27;18.60;99.90
19864;DHT22;10094;48.820;9.226;2023-05-01T15:29:10;18.30;99.90
19864;DHT22;10094;48.820;9.226;2023-05-01T15:35:52;18.10;99.90
19864;DHT22;10094;48.820;9.226;2023-05-01T15:42:35;18.20;99.90
19864;DHT22;10094;48.820;9.226;2023-05-01T15:49:17;18.40;99.90
19864;DHT22;10094;48.820;9.226;2023-05-01T15:56:00;18.40;99.90
19864;DHT22;10094;48.820;9.226;2023-05-01T16:02:42;17.50;99.90
19864;DHT22;10094;48.820;9.226;2023-05-01T16:09:29;17.10;99.90
19864;DHT22;10094;48.820;9.226;2023-05-01T16:16:23;17.10;99.90
19864;DHT22;10094;48.820;9.226;2023-05-01T16:23:05;17.20;99.90
19864;DHT22;10094;48.820;9.226;2023-05-01T16:29:48;17.30;99.90
19864;DHT22;10094;48.820;9.226;2023-05-01T16:36:31;16.50;99.90
19864;DHT22;10094;48.820;9.226;2023-05-01T16:43:15;16.30;99.90
19864;DHT22;10094;48.820;9.226;2023-05-01T16:49:58;16.60;99.90
19864;DHT22;10094;48.820;9.226;2023-05-01T16:56:41;16.50;99.90
19864;DHT22;10094;48.820;9.226;2023-05-01T17:03:24;16.20;99.90
19864;DHT22;10094;48.820;9.226;2023-05-01T17:10:08;15.60;99.90
19864;DHT22;10094;48.820;9.226;2023-05-01T17:16:51;14.20;99.90
19864;DHT22;10094;48.820;9.226;2023-05-01T17:23:34;14.30;99.90
19864;DHT22;10094;48.820;9.226;2023-05-01T17:30:17;14.60;99.90
19864;DHT22;10094;48.820;9.226;2023-05-01T17:36:59;14.70;99.90
19864;DHT22;10094;48.820;9.226;2023-05-01T17:43:41;14.50;99.90
19864;DHT22;10094;48.820;9.226;2023-05-01T17:50:25;14.80;99.90
19864;DHT22;10094;48.820;9.226;2023-05-01T17:57:08;14.90;99.90
19864;DHT22;10094;48.820;9.226;2023-05-01T18:03:51;15.00;99.90
19864;DHT22;10094;48.820;9.226;2023-05-01T18:10:33;14.80;99.90
19864;DHT22;10094;48.820;9.226;2023-05-01T18:17:16;14.80;99.90
19864;DHT22;10094;48.820;9.226;2023-05-01T18:23:59;14.60;99.90
19864;DHT22;10094;48.820;9.226;2023-05-01T18:30:43;14.50;99.90
19864;DHT22;10094;48.820;9.226;2023-05-01T18:37:25;14.60;99.90
19864;DHT22;10094;48.820;9.226;2023-05-01T18:44:08;14.40;99.90
19864;DHT22;10094;48.820;9.226;2023-05-01T18:50:50;14.10;99.90
19864;DHT22;10094;48.820;9.226;2023-05-01T18:57:49;14.00;99.90
19864;DHT22;10094;48.820;9.226;2023-05-01T19:04:36;14.00;99.90
19864;DHT22;10094;48.820;9.226;2023-05-01T19:11:37;14.10;99.90
19864;DHT22;10094;48.820;9.226;2023-05-01T19:18:19;13.90;99.90
19864;DHT22;10094;48.820;9.226;2023-05-01T19:25:02;13.80;99.90
19864;DHT22;10094;48.820;9.226;2023-05-01T19:31:45;13.50;99.90
19864;DHT22;10094;48.820;9.226;2023-05-01T19:38:27;13.50;99.90
19864;DHT22;10094;48.820;9.226;2023-05-01T19:45:10;13.50;99.90
19864;DHT22;10094;48.820;9.226;2023-05-01T19:51:53;13.40;99.90
19864;DHT22;10094;48.820;9.226;2023-05-01T19:58:35;13.40;99.90
19864;DHT22;10094;48.820;9.226;2023-05-01T20:05:18;13.30;99.90
19864;DHT22;10094;48.820;9.226;2023-05-01T20:12:00;13.20;99.90
19864;DHT22;10094;48.820;9.226;2023-05-01T20:18:42;13.30;99.90
19864;DHT22;10094;48.820;9.226;2023-05-01T20:25:25;13.20;99.90
19864;DHT22;10094;48.820;9.226;2023-05-01T20:32:07;13.30;99.90
19864;DHT22;10094;48.820;9.226;2023-05-01T20:38:49;13.10;99.90
19864;DHT22;10094;48.820;9.226;2023-05-01T20:45:34;12.90;99.90
19864;DHT22;10094;48.820;9.226;2023-05-01T20:52:16;12.70;99.90
19864;DHT22;10094;48.820;9.226;2023-05-01T20:59:00;12.70;99.90
19864;DHT22;10094;48.820;9.226;2023-05-01T21:05:42;12.40;99.90
19864;DHT22;10094;48.820;9.226;2023-05-01T21:12:24;12.40;99.90
19864;DHT22;10094;48.820;9.226;2023-05-01T21:19:13;12.40;99.90
19864;DHT22;10094;48.820;9.226;2023-05-01T21:25:56;12.30;99.90
19864;DHT22;10094;48.820;9.226;2023-05-01T21:32:39;12.10;99.90
19864;DHT22;10094;48.820;9.226;2023-05-01T21:39:21;12.00;99.90
19864;DHT22;10094;48.820;9.226;2023-05-01T21:46:08;11.90;99.90
19864;DHT22;10094;48.820;9.226;2023-05-01T21:52:51;11.80;99.90
19864;DHT22;10094;48.820;9.226;2023-05-01T21:59:37;11.70;99.90
19864;DHT22;10094;48.820;9.226;2023-05-01T22:06:19;11.60;99.90
19864;DHT22;10094;48.820;9.226;2023-05-01T22:13:05;11.50;99.90
19864;DHT22;10094;48.820;9.226;2023-05-01T22:19:47;11.50;99.90
19864;DHT22;10094;48.820;9.226;2023-05-01T22:26:30;11.40;99.90
19864;DHT22;10094;48.820;9.226;2023-05-01T22:33:12;11.40;99.90
19864;DHT22;10094;48.820;9.226;2023-05-01T22:39:55;11.40;99.90
19864;DHT22;10094;48.820;9.226;2023-05-01T22:46:37;11.40;99.90
19864;DHT22;10094;48.820;9.226;2023-05-01T22:53:19;11.30;99.90
19864;DHT22;10094;48.820;9.226;2023-05-01T23:00:02;11.30;99.90
19864;DHT22;10094;48.820;9.226;2023-05-01T23:06:45;11.20;99.90
19864;DHT22;10094;48.820;9.226;2023-05-01T23:13:27;11.20;99.90
19864;DHT22;10094;48.820;9.226;2023-05-01T23:20:19;11.10;99.90
19864;DHT22;10094;48.820;9.226;2023-05-01T23:27:02;11.00;99.90
19864;DHT22;10094;48.820;9.226;2023-05-01T23:33:45;10.80;99.90
19864;DHT22;10094;48.820;9.226;2023-05-01T23:40:27;10.80;99.90
19864;DHT22;10094;48.820;9.226;2023-05-01T23:47:10;10.70;99.90
19864;DHT22;10094;48.820;9.226;2023-05-01T23:53:52;10.70;99.90
